Time;durP1;ratioP1;P1;durP2;ratioP2;P2;SDS_P1;SDS_P2;PMS_P1;PMS_P2;Temp;Humidity;BMP_temperature;BMP_pressure;BME280_temperature;BME280_humidity;BME280_pressure;Samples;Min_cycle;Max_cycle;Signal;HPM_P1;HPM_P2
2023/04/19 00:00:58;;;;;;;5.77;3.37;;;;;;;;;;5000726;28;20238;-52
2023/04/19 00:03:24;;;;;;;4.57;3.40;;;;;;;;;;4997798;28;20320;-52
2023/04/19 00:05:52;;;;;;;5.10;3.10;;;;;;;;;;4994720;28;20317;-52
2023/04/19 00:08:20;;;;;;;4.53;3.23;;;;;;;;;;4994903;28;20237;-52
2023/04/19 00:10:46;;;;;;;5.40;3.50;;;;;;;;;;5001428;28;20256;-53
2023/04/19 00:13:13;;;;;;;6.13;3.50;;;;;;;;;;4995773;28;20233;-51
2023/04/19 00:15:39;;;;;;;5.43;2.77;;;;;;;;;;5000985;28;20324;-51
2023/04/19 00:18:06;;;;;;;5.60;3.30;;;;;;;;;;5000345;28;20320;-54
2023/04/19 00:20:33;;;;;;;3.73;3.00;;;;;;;;;;5002262;28;20333;-52
2023/04/19 00:22:59;;;;;;;2.70;2.50;;;;;;;;;;5001869;28;20249;-51
2023/04/19 00:25:29;;;;;;;5.03;3.20;;;;;;;;;;4996648;28;20265;-51
2023/04/19 00:27:56;;;;;;;4.30;3.00;;;;;;;;;;4996909;28;20313;-53
2023/04/19 00:30:22;;;;;;;4.27;2.80;;;;;;;;;;4999845;28;20324;-53
2023/04/19 00:32:49;;;;;;;4.33;3.50;;;;;;;;;;5003692;28;20308;-53
2023/04/19 00:35:16;;;;;;;3.70;2.50;;;;;;;;;;5000605;28;20238;-54
2023/04/19 00:37:43;;;;;;;2.73;2.40;;;;;;;;;;4999404;28;20229;-52
2023/04/19 00:40:10;;;;;;;3.53;3.03;;;;;;;;;;5001462;28;20256;-53
2023/04/19 00:42:38;;;;;;;2.97;2.70;;;;;;;;;;5002595;28;20261;-52
2023/04/19 00:45:06;;;;;;;4.93;2.77;;;;;;;;;;5002600;28;20340;-53
2023/04/19 00:47:32;;;;;;;3.43;2.10;;;;;;;;;;4999196;28;20239;-52
2023/04/19 00:49:59;;;;;;;6.33;3.73;;;;;;;;;;4998746;28;20248;-53
2023/04/19 00:52:26;;;;;;;4.57;2.80;;;;;;;;;;5002188;28;20243;-52
2023/04/19 00:54:53;;;;;;;3.03;2.80;;;;;;;;;;5004756;28;20236;-52
2023/04/19 00:57:20;;;;;;;4.17;2.63;;;;;;;;;;4999779;28;20237;-53
2023/04/19 00:59:48;;;;;;;3.70;3.00;;;;;;;;;;4997118;28;20232;-52
2023/04/19 01:02:15;;;;;;;3.17;2.63;;;;;;;;;;5002239;28;20229;-54
2023/04/19 01:04:41;;;;;;;2.90;2.20;;;;;;;;;;5000935;28;20963;-52
2023/04/19 01:07:08;;;;;;;2.70;2.30;;;;;;;;;;5005056;28;20225;-53
2023/04/19 01:09:35;;;;;;;4.53;2.93;;;;;;;;;;5001294;28;20899;-52
2023/04/19 01:12:02;;;;;;;3.77;2.93;;;;;;;;;;5003676;28;20237;-53
2023/04/19 01:14:29;;;;;;;4.97;3.57;;;;;;;;;;5008311;28;20291;-52
2023/04/19 01:16:58;;;;;;;3.70;2.90;;;;;;;;;;5002162;28;20291;-53
2023/04/19 01:19:25;;;;;;;3.03;2.50;;;;;;;;;;5003285;28;20231;-51
2023/04/19 01:21:52;;;;;;;3.27;2.50;;;;;;;;;;5002548;28;20237;-52
2023/04/19 01:24:20;;;;;;;7.53;2.70;;;;;;;;;;5002523;28;20324;-54
2023/04/19 01:26:47;;;;;;;3.27;2.40;;;;;;;;;;5003932;28;20229;-52
2023/04/19 01:29:16;;;;;;;2.73;2.37;;;;;;;;;;5004385;28;20251;-51
2023/04/19 01:31:47;;;;;;;3.50;2.97;;;;;;;;;;5000515;28;20226;-53
2023/04/19 01:34:14;;;;;;;5.40;2.53;;;;;;;;;;5003527;28;20384;-52
2023/04/19 01:36:41;;;;;;;2.60;2.40;;;;;;;;;;5001991;28;20233;-54
2023/04/19 01:39:08;;;;;;;3.27;2.57;;;;;;;;;;5004141;28;20221;-52
2023/04/19 01:41:36;;;;;;;3.37;2.57;;;;;;;;;;5004887;28;20268;-55
2023/04/19 01:44:03;;;;;;;6.27;2.97;;;;;;;;;;5000714;28;20891;-53
2023/04/19 01:46:29;;;;;;;2.30;2.10;;;;;;;;;;5003542;28;20241;-52
2023/04/19 01:48:56;;;;;;;3.80;2.63;;;;;;;;;;5002275;28;20265;-53
2023/04/19 01:51:23;;;;;;;3.43;2.60;;;;;;;;;;5000459;28;20291;-53
2023/04/19 01:53:52;;;;;;;3.17;2.50;;;;;;;;;;5001395;28;20893;-53
2023/04/19 01:56:19;;;;;;;5.97;3.00;;;;;;;;;;4997315;28;20240;-51
2023/04/19 01:58:47;;;;;;;2.57;2.33;;;;;;;;;;4997859;28;20229;-52
2023/04/19 02:01:13;;;;;;;5.93;2.60;;;;;;;;;;5001093;28;20241;-54
2023/04/19 02:03:40;;;;;;;3.23;2.27;;;;;;;;;;5000785;28;20237;-53
2023/04/19 02:06:10;;;;;;;2.63;2.30;;;;;;;;;;5000688;28;20319;-52
2023/04/19 02:08:36;;;;;;;4.87;2.83;;;;;;;;;;5006125;28;20233;-56
2023/04/19 02:11:06;;;;;;;4.57;3.23;;;;;;;;;;5014797;28;20301;-52
2023/04/19 02:13:32;;;;;;;8.10;2.53;;;;;;;;;;5012039;28;20244;-52
2023/04/19 02:16:01;;;;;;;4.30;2.63;;;;;;;;;;5005285;28;20237;-52
2023/04/19 02:18:28;;;;;;;3.13;2.60;;;;;;;;;;5003762;28;20252;-54
2023/04/19 02:20:55;;;;;;;3.53;2.90;;;;;;;;;;5006554;28;20240;-52
2023/04/19 02:23:21;;;;;;;3.07;2.30;;;;;;;;;;5011909;28;20244;-51
2023/04/19 02:25:48;;;;;;;2.47;2.33;;;;;;;;;;5000801;28;20246;-57
2023/04/19 02:28:14;;;;;;;4.93;2.70;;;;;;;;;;4999607;28;21886;-53
2023/04/19 02:30:41;;;;;;;7.27;3.30;;;;;;;;;;5003828;28;20229;-51
2023/04/19 02:33:09;;;;;;;4.00;3.17;;;;;;;;;;5003617;28;20741;-52
2023/04/19 02:35:36;;;;;;;2.77;2.57;;;;;;;;;;5001625;28;20241;-52
2023/04/19 02:38:03;;;;;;;2.90;1.80;;;;;;;;;;4998344;28;20225;-52
2023/04/19 02:40:29;;;;;;;2.53;2.33;;;;;;;;;;5006303;28;20254;-53
2023/04/19 02:42:56;;;;;;;3.07;2.53;;;;;;;;;;4990847;28;20258;-54
2023/04/19 02:45:23;;;;;;;5.60;2.47;;;;;;;;;;5003460;28;20237;-52
2023/04/19 02:47:49;;;;;;;3.17;2.43;;;;;;;;;;4997948;28;20257;-53
2023/04/19 02:50:17;;;;;;;4.13;2.77;;;;;;;;;;4998200;28;20250;-52
2023/04/19 02:52:43;;;;;;;4.20;2.33;;;;;;;;;;5002250;28;20241;-52
2023/04/19 02:55:10;;;;;;;6.83;2.20;;;;;;;;;;5002209;28;20249;-52
2023/04/19 02:57:37;;;;;;;2.80;2.13;;;;;;;;;;5001499;28;20886;-53
2023/04/19 03:00:04;;;;;;;6.63;2.77;;;;;;;;;;4998454;28;20225;-53
2023/04/19 03:02:30;;;;;;;2.80;2.27;;;;;;;;;;4998419;28;20320;-51
2023/04/19 03:04:58;;;;;;;3.87;2.20;;;;;;;;;;4998770;28;20720;-53
2023/04/19 03:07:26;;;;;;;3.57;2.93;;;;;;;;;;5001350;28;20229;-52
2023/04/19 03:09:52;;;;;;;3.50;2.20;;;;;;;;;;5000136;28;20690;-53
2023/04/19 03:12:19;;;;;;;3.33;2.53;;;;;;;;;;5000771;28;20727;-53
2023/04/19 03:14:45;;;;;;;2.87;2.43;;;;;;;;;;5000563;28;20237;-53
2023/04/19 03:17:12;;;;;;;4.60;2.30;;;;;;;;;;4999966;28;20232;-52
2023/04/19 03:19:39;;;;;;;4.03;1.90;;;;;;;;;;5001275;28;20305;-52
2023/04/19 03:22:05;;;;;;;2.40;1.73;;;;;;;;;;5001253;28;20241;-54
2023/04/19 03:24:34;;;;;;;3.97;2.20;;;;;;;;;;4999904;28;20244;-53
2023/04/19 03:27:00;;;;;;;2.90;2.23;;;;;;;;;;4998368;28;20716;-52
2023/04/19 03:29:27;;;;;;;5.77;2.33;;;;;;;;;;4999012;28;20692;-52
2023/04/19 03:31:53;;;;;;;3.07;2.13;;;;;;;;;;4998595;28;20329;-52
2023/04/19 03:34:20;;;;;;;4.90;2.87;;;;;;;;;;5000643;28;20237;-52
2023/04/19 03:36:47;;;;;;;3.53;2.60;;;;;;;;;;5003872;28;20782;-53
2023/04/19 03:39:13;;;;;;;2.27;2.07;;;;;;;;;;5000118;28;20252;-53
2023/04/19 03:41:41;;;;;;;3.60;2.53;;;;;;;;;;5002724;28;20720;-54
2023/04/19 03:44:08;;;;;;;5.50;2.77;;;;;;;;;;4997884;28;20248;-53
2023/04/19 03:46:34;;;;;;;3.13;2.43;;;;;;;;;;5001681;28;20240;-54
2023/04/19 03:49:01;;;;;;;2.33;2.07;;;;;;;;;;4999313;28;20259;-52
2023/04/19 03:51:27;;;;;;;4.37;2.07;;;;;;;;;;4994826;28;20243;-53
2023/04/19 03:53:54;;;;;;;5.10;2.37;;;;;;;;;;4994842;28;21278;-53
2023/04/19 03:56:20;;;;;;;2.73;1.90;;;;;;;;;;5005455;28;20233;-51
2023/04/19 03:58:50;;;;;;;2.10;1.90;;;;;;;;;;4989492;28;20317;-53
2023/04/19 04:01:20;;;;;;;2.80;2.50;;;;;;;;;;4999915;28;20329;-52
2023/04/19 04:03:47;;;;;;;2.20;2.00;;;;;;;;;;5000516;28;20229;-53
2023/04/19 04:06:13;;;;;;;3.20;2.40;;;;;;;;;;5001525;28;20229;-51
2023/04/19 04:08:40;;;;;;;5.53;2.20;;;;;;;;;;5001341;28;20259;-54
2023/04/19 04:11:06;;;;;;;2.57;2.03;;;;;;;;;;5002615;28;20272;-54
2023/04/19 04:13:33;;;;;;;6.40;3.10;;;;;;;;;;5001697;28;20323;-52
2023/04/19 04:16:01;;;;;;;3.10;2.47;;;;;;;;;;5000369;28;20313;-52
2023/04/19 04:18:28;;;;;;;3.27;2.67;;;;;;;;;;5000663;28;20700;-52
2023/04/19 04:20:54;;;;;;;3.10;2.40;;;;;;;;;;4998502;28;20233;-53
2023/04/19 04:23:21;;;;;;;3.53;2.03;;;;;;;;;;4999972;28;20316;-52
2023/04/19 04:25:48;;;;;;;4.13;2.40;;;;;;;;;;5000528;28;20249;-53
2023/04/19 04:28:14;;;;;;;3.93;1.90;;;;;;;;;;5002311;28;20450;-51
2023/04/19 04:30:41;;;;;;;5.20;2.40;;;;;;;;;;4998015;28;20236;-52
2023/04/19 04:33:10;;;;;;;4.33;2.47;;;;;;;;;;4997507;28;20229;-51
2023/04/19 04:35:37;;;;;;;3.87;3.40;;;;;;;;;;5002454;28;20237;-53
2023/04/19 04:38:04;;;;;;;3.70;1.97;;;;;;;;;;5004122;28;20272;-53
2023/04/19 04:40:31;;;;;;;5.10;2.50;;;;;;;;;;5002980;28;20287;-53
2023/04/19 04:42:59;;;;;;;4.67;2.60;;;;;;;;;;5006414;28;20243;-53
2023/04/19 04:45:27;;;;;;;2.47;2.00;;;;;;;;;;5004527;28;20762;-53
2023/04/19 04:47:54;;;;;;;3.47;2.00;;;;;;;;;;5000967;28;20684;-52
2023/04/19 04:50:22;;;;;;;3.40;2.40;;;;;;;;;;5008031;28;20237;-51
2023/04/19 04:52:49;;;;;;;3.87;2.30;;;;;;;;;;5006220;28;20330;-52
2023/04/19 04:55:15;;;;;;;2.33;2.10;;;;;;;;;;5013187;28;20264;-55
2023/04/19 04:57:42;;;;;;;4.10;2.40;;;;;;;;;;5011567;28;20747;-51
2023/04/19 05:00:09;;;;;;;4.33;2.30;;;;;;;;;;5019553;28;20841;-57
2023/04/19 05:02:36;;;;;;;3.03;2.63;;;;;;;;;;5019567;28;20244;-52
2023/04/19 05:05:03;;;;;;;3.63;2.47;;;;;;;;;;5004490;28;20253;-52
2023/04/19 05:07:31;;;;;;;3.27;2.50;;;;;;;;;;5002583;28;20260;-52
2023/04/19 05:09:57;;;;;;;4.83;3.20;;;;;;;;;;4998737;28;20243;-51
2023/04/19 05:12:24;;;;;;;3.43;2.40;;;;;;;;;;5004152;28;20255;-52
2023/04/19 05:14:50;;;;;;;3.07;2.47;;;;;;;;;;5006785;28;20257;-53
2023/04/19 05:17:17;;;;;;;5.60;3.23;;;;;;;;;;5007164;28;20240;-53
2023/04/19 05:19:44;;;;;;;7.53;3.10;;;;;;;;;;4999354;28;20233;-51
2023/04/19 05:22:10;;;;;;;5.80;2.60;;;;;;;;;;5006681;28;20275;-52
2023/04/19 05:24:39;;;;;;;2.87;1.87;;;;;;;;;;5003731;28;20236;-52
2023/04/19 05:27:06;;;;;;;4.33;2.47;;;;;;;;;;4999992;28;20233;-52
2023/04/19 05:29:33;;;;;;;3.23;2.10;;;;;;;;;;5002431;28;20236;-54
2023/04/19 05:31:59;;;;;;;2.83;2.50;;;;;;;;;;5001470;28;20333;-53
2023/04/19 05:34:26;;;;;;;3.77;2.57;;;;;;;;;;5003660;28;20233;-53
2023/04/19 05:36:53;;;;;;;2.23;1.87;;;;;;;;;;4997350;28;20238;-50
2023/04/19 05:39:19;;;;;;;5.23;2.57;;;;;;;;;;5004040;28;20735;-53
2023/04/19 05:41:47;;;;;;;2.10;2.00;;;;;;;;;;4996654;28;20236;-53
2023/04/19 05:44:14;;;;;;;3.57;2.23;;;;;;;;;;5002621;28;20279;-52
2023/04/19 05:46:40;;;;;;;2.43;2.23;;;;;;;;;;5001816;28;20233;-53
2023/04/19 05:49:07;;;;;;;3.80;2.10;;;;;;;;;;4997159;28;20304;-53
2023/04/19 05:51:33;;;;;;;3.97;1.93;;;;;;;;;;4996836;28;20723;-52
2023/04/19 05:54:00;;;;;;;3.53;1.63;;;;;;;;;;5001868;28;20237;-53
2023/04/19 05:56:27;;;;;;;3.97;2.30;;;;;;;;;;5001269;28;20230;-52
2023/04/19 05:58:55;;;;;;;4.87;1.90;;;;;;;;;;4988532;28;20272;-52
2023/04/19 06:01:21;;;;;;;2.13;1.93;;;;;;;;;;5000293;28;20237;-52
2023/04/19 06:03:51;;;;;;;5.93;2.60;;;;;;;;;;4993403;28;20763;-55
2023/04/19 06:06:18;;;;;;;2.40;1.90;;;;;;;;;;4999730;28;20248;-52
2023/04/19 06:08:44;;;;;;;2.80;1.50;;;;;;;;;;4993354;28;22062;-51
2023/04/19 06:11:11;;;;;;;3.40;1.60;;;;;;;;;;4995774;28;20736;-54
2023/04/19 06:13:38;;;;;;;3.37;2.10;;;;;;;;;;5001495;28;20315;-52
2023/04/19 06:16:06;;;;;;;4.03;1.70;;;;;;;;;;4999746;28;20825;-52
2023/04/19 06:18:33;;;;;;;1.73;1.53;;;;;;;;;;4987941;28;20230;-52
2023/04/19 06:20:59;;;;;;;3.30;1.87;;;;;;;;;;4998832;28;20294;-52
2023/04/19 06:26:29;;;;;;;4.70;2.10;;;;;;;;;;5001051;28;20305;-52
2023/04/19 06:28:55;;;;;;;2.23;1.80;;;;;;;;;;4997736;28;20327;-51
2023/04/19 06:31:24;;;;;;;3.13;1.53;;;;;;;;;;4999708;28;20307;-52
2023/04/19 06:33:50;;;;;;;1.90;1.43;;;;;;;;;;5000262;28;20268;-52
2023/04/19 06:36:17;;;;;;;3.60;1.97;;;;;;;;;;5001295;28;20229;-53
2023/04/19 06:38:45;;;;;;;2.30;1.70;;;;;;;;;;4996378;28;20225;-52
2023/04/19 06:41:11;;;;;;;2.47;1.80;;;;;;;;;;4997056;28;20233;-53
2023/04/19 06:43:39;;;;;;;3.80;2.03;;;;;;;;;;5003053;28;20241;-51
2023/04/19 06:46:06;;;;;;;3.13;2.07;;;;;;;;;;5002040;28;20267;-53
2023/04/19 06:48:35;;;;;;;5.23;1.90;;;;;;;;;;4994480;28;20279;-53
2023/04/19 06:51:01;;;;;;;1.70;1.53;;;;;;;;;;5001450;28;20241;-52
2023/04/19 06:53:28;;;;;;;1.77;1.67;;;;;;;;;;5001284;28;20225;-53
2023/04/19 06:55:56;;;;;;;1.53;1.37;;;;;;;;;;5001924;28;20237;-54
2023/04/19 06:58:23;;;;;;;7.90;1.70;;;;;;;;;;5002234;28;20233;-54
2023/04/19 07:00:49;;;;;;;4.90;1.93;;;;;;;;;;5003322;28;20233;-51
2023/04/19 07:03:16;;;;;;;4.03;1.70;;;;;;;;;;4999642;28;20237;-53
2023/04/19 07:05:44;;;;;;;3.43;1.83;;;;;;;;;;5003432;28;20728;-52
2023/04/19 07:08:10;;;;;;;1.83;1.60;;;;;;;;;;5004184;28;20233;-52
2023/04/19 07:10:37;;;;;;;2.17;1.43;;;;;;;;;;5001858;28;20229;-52
2023/04/19 07:13:04;;;;;;;4.77;2.10;;;;;;;;;;5002568;28;20237;-53
2023/04/19 07:15:31;;;;;;;3.33;2.37;;;;;;;;;;5003275;28;20298;-52
2023/04/19 07:17:57;;;;;;;2.37;1.80;;;;;;;;;;4999898;28;20609;-53
2023/04/19 07:20:24;;;;;;;2.73;1.83;;;;;;;;;;4993207;28;20316;-53
2023/04/19 07:22:52;;;;;;;3.90;2.47;;;;;;;;;;4988871;28;20236;-53
2023/04/19 07:25:18;;;;;;;2.37;1.60;;;;;;;;;;4998361;28;20302;-54
2023/04/19 07:27:45;;;;;;;5.17;1.93;;;;;;;;;;5003866;28;20225;-53
2023/04/19 07:30:11;;;;;;;6.30;1.80;;;;;;;;;;5006985;28;20259;-53
2023/04/19 07:32:38;;;;;;;3.97;1.67;;;;;;;;;;5004076;28;20252;-53
2023/04/19 07:35:11;;;;;;;2.70;1.60;;;;;;;;;;4991247;28;20241;-51
2023/04/19 07:37:37;;;;;;;2.57;1.80;;;;;;;;;;4992973;28;20240;-52
2023/04/19 07:40:06;;;;;;;3.73;1.80;;;;;;;;;;4994429;28;20233;-52
2023/04/19 07:42:33;;;;;;;2.90;2.10;;;;;;;;;;4996924;28;20961;-53
2023/04/19 07:44:59;;;;;;;3.00;2.30;;;;;;;;;;5002456;28;20268;-53
2023/04/19 07:47:26;;;;;;;2.97;2.00;;;;;;;;;;5002731;28;20236;-54
2023/04/19 07:49:53;;;;;;;3.50;1.77;;;;;;;;;;5002933;28;20229;-51
2023/04/19 07:52:19;;;;;;;2.63;1.93;;;;;;;;;;5003102;28;20299;-53
2023/04/19 07:54:46;;;;;;;4.23;2.37;;;;;;;;;;5000474;28;20257;-52
2023/04/19 07:57:14;;;;;;;3.30;2.10;;;;;;;;;;4998908;28;20279;-53
2023/04/19 07:59:40;;;;;;;2.37;1.80;;;;;;;;;;4995084;28;20600;-53
2023/04/19 08:02:07;;;;;;;2.63;1.63;;;;;;;;;;4997491;28;20355;-53
2023/04/19 08:04:34;;;;;;;4.57;2.10;;;;;;;;;;5002054;28;20241;-52
2023/04/19 08:07:02;;;;;;;4.87;1.60;;;;;;;;;;5001550;28;20237;-52
2023/04/19 08:09:29;;;;;;;4.17;2.17;;;;;;;;;;5004224;28;20225;-52
2023/04/19 08:11:57;;;;;;;5.47;2.30;;;;;;;;;;4999488;28;20239;-55
2023/04/19 08:14:25;;;;;;;3.43;1.87;;;;;;;;;;5003219;28;20244;-53
2023/04/19 08:16:52;;;;;;;3.47;2.27;;;;;;;;;;5003188;28;20573;-52
2023/04/19 08:19:19;;;;;;;5.43;2.60;;;;;;;;;;5001104;28;20278;-52
2023/04/19 08:21:45;;;;;;;3.23;2.03;;;;;;;;;;4999199;28;20319;-52
2023/04/19 08:24:12;;;;;;;1.90;1.70;;;;;;;;;;5002394;28;20692;-53
2023/04/19 08:26:39;;;;;;;3.80;2.40;;;;;;;;;;5006696;28;20287;-54
2023/04/19 08:29:06;;;;;;;4.40;2.47;;;;;;;;;;5004600;28;20233;-52
2023/04/19 08:31:34;;;;;;;3.10;2.30;;;;;;;;;;5000874;28;20240;-53
2023/04/19 08:34:02;;;;;;;3.67;2.20;;;;;;;;;;5001642;28;20240;-54
2023/04/19 08:36:29;;;;;;;3.33;1.57;;;;;;;;;;5002760;28;20769;-54
2023/04/19 08:38:56;;;;;;;5.67;2.00;;;;;;;;;;5000856;28;20858;-52
2023/04/19 08:41:23;;;;;;;3.83;1.87;;;;;;;;;;4995672;28;20242;-53
2023/04/19 08:43:51;;;;;;;3.27;2.33;;;;;;;;;;5001699;28;21330;-53
2023/04/19 08:46:18;;;;;;;2.80;1.85;;;;;;;;;;5008705;28;20777;-53
2023/04/19 08:48:45;;;;;;;2.53;2.30;;;;;;;;;;5004619;28;20257;-52
2023/04/19 08:51:14;;;;;;;2.08;1.95;;;;;;;;;;5008143;28;20259;-53
2023/04/19 08:53:41;;;;;;;3.47;2.25;;;;;;;;;;5001404;28;20245;-54
2023/04/19 08:56:07;;;;;;;8.57;2.70;;;;;;;;;;5014779;28;20312;-52
2023/04/19 08:58:34;;;;;;;4.30;2.35;;;;;;;;;;5001134;28;20241;-53
2023/04/19 09:01:01;;;;;;;3.40;2.25;;;;;;;;;;5004980;28;20247;-52
2023/04/19 09:03:27;;;;;;;3.63;2.57;;;;;;;;;;5003539;28;20229;-53
2023/04/19 09:05:54;;;;;;;2.40;2.20;;;;;;;;;;4997748;28;20244;-54
2023/04/19 09:08:24;;;;;;;3.10;2.30;;;;;;;;;;4995705;28;20233;-52
2023/04/19 09:10:54;;;;;;;2.83;1.98;;;;;;;;;;4993579;28;20234;-53
2023/04/19 09:13:20;;;;;;;3.22;2.47;;;;;;;;;;5000933;28;20463;-52
2023/04/19 09:15:47;;;;;;;4.78;2.45;;;;;;;;;;4997115;28;20234;-52
2023/04/19 09:18:14;;;;;;;5.57;1.93;;;;;;;;;;4998187;28;20239;-52
2023/04/19 09:20:42;;;;;;;3.22;2.28;;;;;;;;;;4991804;28;20299;-53
2023/04/19 09:23:11;;;;;;;6.03;2.75;;;;;;;;;;4999445;28;20230;-54
2023/04/19 09:25:39;;;;;;;3.53;1.90;;;;;;;;;;5001749;28;20237;-54
2023/04/19 09:28:09;;;;;;;4.88;2.13;;;;;;;;;;4993441;28;20316;-52
2023/04/19 09:30:35;;;;;;;8.75;2.30;;;;;;;;;;5001958;28;20629;-52
2023/04/19 09:33:01;;;;;;;3.88;1.95;;;;;;;;;;4990760;28;20233;-53
2023/04/19 09:35:40;;;;;;;6.10;2.75;;;;;;;;;;4999281;28;20333;-53
2023/04/19 09:38:06;;;;;;;6.60;2.95;;;;;;;;;;5003937;28;20257;-53
2023/04/19 09:40:32;;;;;;;2.30;2.10;;;;;;;;;;5001604;28;20320;-51
2023/04/19 09:43:00;;;;;;;2.88;2.47;;;;;;;;;;5007089;28;20611;-52
2023/04/19 09:45:27;;;;;;;3.50;2.20;;;;;;;;;;5003999;28;20233;-53
2023/04/19 09:48:00;;;;;;;4.85;2.28;;;;;;;;;;5003478;28;20239;-53
2023/04/19 09:50:27;;;;;;;3.05;2.58;;;;;;;;;;5004584;28;20231;-53
2023/04/19 09:52:53;;;;;;;4.43;2.88;;;;;;;;;;5005681;28;20804;-51
2023/04/19 09:55:20;;;;;;;6.93;2.72;;;;;;;;;;4999544;28;20249;-51
2023/04/19 09:57:46;;;;;;;5.00;2.88;;;;;;;;;;5001541;28;20233;-52
2023/04/19 10:00:14;;;;;;;3.92;2.70;;;;;;;;;;5002517;28;20246;-52
2023/04/19 10:02:41;;;;;;;4.30;2.45;;;;;;;;;;5003288;28;20229;-53
2023/04/19 10:05:08;;;;;;;3.42;2.28;;;;;;;;;;5000556;28;20249;-54
2023/04/19 10:07:35;;;;;;;3.55;2.60;;;;;;;;;;5003157;28;20232;-53
2023/04/19 10:10:02;;;;;;;7.03;3.03;;;;;;;;;;5004516;28;20248;-51
2023/04/19 10:12:30;;;;;;;2.47;2.28;;;;;;;;;;5000275;28;20244;-54
2023/04/19 10:14:57;;;;;;;2.70;2.40;;;;;;;;;;4989455;28;20237;-52
2023/04/19 10:17:25;;;;;;;3.53;2.33;;;;;;;;;;5001142;28;20613;-53
2023/04/19 10:19:53;;;;;;;4.03;2.45;;;;;;;;;;5001255;28;20244;-52
2023/04/19 10:22:19;;;;;;;4.55;2.08;;;;;;;;;;5001314;28;20477;-53
2023/04/19 10:25:00;;;;;;;4.78;2.45;;;;;;;;;;5002414;28;20233;-52
2023/04/19 10:27:27;;;;;;;4.28;2.92;;;;;;;;;;4996227;28;20266;-53
2023/04/19 10:30:00;;;;;;;5.63;2.92;;;;;;;;;;4999239;28;20245;-52
2023/04/19 10:32:36;;;;;;;4.63;2.85;;;;;;;;;;5001963;28;20640;-53
2023/04/19 10:35:07;;;;;;;4.90;2.75;;;;;;;;;;4998205;28;20336;-52
2023/04/19 10:37:33;;;;;;;5.05;2.83;;;;;;;;;;5003081;28;20237;-52
2023/04/19 10:40:00;;;;;;;10.15;3.33;;;;;;;;;;5005067;28;20241;-54
2023/04/19 10:42:53;;;;;;;4.50;2.53;;;;;;;;;;5003459;28;20583;-52
2023/04/19 10:45:34;;;;;;;5.85;3.28;;;;;;;;;;5000235;28;20793;-53
2023/04/19 10:48:02;;;;;;;5.45;2.97;;;;;;;;;;5000390;28;20228;-53
2023/04/19 10:50:28;;;;;;;4.78;2.42;;;;;;;;;;5005164;28;20236;-52
2023/04/19 10:52:55;;;;;;;3.25;2.63;;;;;;;;;;5001806;28;20257;-53
2023/04/19 10:55:21;;;;;;;4.00;2.55;;;;;;;;;;5002185;28;20312;-52
2023/04/19 10:58:03;;;;;;;3.92;2.88;;;;;;;;;;5004224;28;20229;-52
2023/04/19 11:00:32;;;;;;;2.92;2.28;;;;;;;;;;4993623;28;20221;-52
2023/04/19 11:02:58;;;;;;;4.70;2.80;;;;;;;;;;5001311;28;20325;-53
2023/04/19 11:05:26;;;;;;;3.67;2.22;;;;;;;;;;4995273;28;20238;-52
2023/04/19 11:07:52;;;;;;;2.35;1.90;;;;;;;;;;5003450;28;20323;-52
2023/04/19 11:10:28;;;;;;;6.57;3.13;;;;;;;;;;5001585;28;20233;-52
2023/04/19 11:12:54;;;;;;;3.58;2.65;;;;;;;;;;5002112;28;20236;-52
2023/04/19 11:15:21;;;;;;;10.25;3.22;;;;;;;;;;5000480;28;20245;-54
2023/04/19 11:17:49;;;;;;;3.63;2.38;;;;;;;;;;4996581;28;20324;-52
2023/04/19 11:20:15;;;;;;;5.00;2.70;;;;;;;;;;5003543;28;20228;-52
2023/04/19 11:22:44;;;;;;;5.30;2.92;;;;;;;;;;5004012;28;20313;-52
2023/04/19 11:25:11;;;;;;;2.45;2.15;;;;;;;;;;5003252;28;20328;-51
2023/04/19 11:27:38;;;;;;;3.75;2.67;;;;;;;;;;5000918;28;20727;-52
2023/04/19 11:30:05;;;;;;;3.55;2.50;;;;;;;;;;5005479;28;20238;-52
2023/04/19 11:32:32;;;;;;;4.03;2.83;;;;;;;;;;5006434;28;20233;-53
2023/04/19 11:35:03;;;;;;;4.18;2.30;;;;;;;;;;5007739;28;20244;-52
2023/04/19 11:37:32;;;;;;;5.45;2.60;;;;;;;;;;5016041;28;20316;-53
2023/04/19 11:39:59;;;;;;;2.60;2.40;;;;;;;;;;5002414;28;20325;-53
2023/04/19 11:42:26;;;;;;;5.75;2.67;;;;;;;;;;5004652;28;20239;-51
2023/04/19 11:44:56;;;;;;;4.20;2.85;;;;;;;;;;4998296;28;20303;-51
2023/04/19 11:47:22;;;;;;;4.85;2.65;;;;;;;;;;5000991;28;20237;-55
2023/04/19 11:49:49;;;;;;;5.25;2.50;;;;;;;;;;5003504;28;20229;-51
2023/04/19 11:52:22;;;;;;;4.18;2.78;;;;;;;;;;5011210;28;20234;-53
2023/04/19 11:54:48;;;;;;;4.95;3.30;;;;;;;;;;5013509;28;20237;-53
2023/04/19 11:57:26;;;;;;;4.68;2.70;;;;;;;;;;5011982;28;20320;-53
2023/04/19 12:00:03;;;;;;;6.10;2.47;;;;;;;;;;5008489;28;20287;-52
2023/04/19 12:02:29;;;;;;;4.85;3.05;;;;;;;;;;5008441;28;20267;-52
2023/04/19 12:04:56;;;;;;;2.40;2.17;;;;;;;;;;5010381;28;20238;-52
2023/04/19 12:07:22;;;;;;;3.97;2.47;;;;;;;;;;5009580;28;20237;-52
2023/04/19 12:09:48;;;;;;;3.42;2.58;;;;;;;;;;5005781;28;20977;-53
2023/04/19 12:12:30;;;;;;;5.57;2.30;;;;;;;;;;5002367;28;20244;-53
2023/04/19 12:14:57;;;;;;;10.27;3.00;;;;;;;;;;4998404;28;20241;-53
2023/04/19 12:17:24;;;;;;;4.80;3.42;;;;;;;;;;4991895;28;20237;-52
2023/04/19 12:19:50;;;;;;;3.38;2.83;;;;;;;;;;4998369;28;20263;-53
2023/04/19 12:22:19;;;;;;;3.17;2.45;;;;;;;;;;5000865;28;20268;-53
2023/04/19 12:24:45;;;;;;;4.40;3.25;;;;;;;;;;4997651;28;20614;-56
2023/04/19 12:27:12;;;;;;;3.63;2.60;;;;;;;;;;5000168;28;20232;-52
2023/04/19 12:29:38;;;;;;;3.03;2.33;;;;;;;;;;4999055;28;20264;-52
2023/04/19 12:32:06;;;;;;;4.50;2.40;;;;;;;;;;4993954;28;20716;-52
2023/04/19 12:34:32;;;;;;;3.33;2.95;;;;;;;;;;4996895;28;20325;-53
2023/04/19 12:36:59;;;;;;;4.20;2.70;;;;;;;;;;4998119;28;20272;-51
2023/04/19 12:39:27;;;;;;;3.33;2.97;;;;;;;;;;4995751;28;20239;-52
2023/04/19 12:41:53;;;;;;;5.65;3.05;;;;;;;;;;5001129;28;20248;-52
2023/04/19 12:44:20;;;;;;;6.72;2.97;;;;;;;;;;5002388;28;20332;-52
2023/04/19 12:46:46;;;;;;;3.80;2.72;;;;;;;;;;4998286;28;20239;-51
2023/04/19 12:49:14;;;;;;;4.10;3.17;;;;;;;;;;4992980;28;20739;-51
2023/04/19 12:51:41;;;;;;;3.63;2.75;;;;;;;;;;5000784;28;21134;-53
2023/04/19 12:54:08;;;;;;;3.78;3.15;;;;;;;;;;5001345;28;20245;-52
2023/04/19 12:56:34;;;;;;;3.45;3.10;;;;;;;;;;5003024;28;20233;-51
2023/04/19 12:59:03;;;;;;;5.75;3.20;;;;;;;;;;5002813;28;20762;-53
2023/04/19 13:01:30;;;;;;;4.47;2.85;;;;;;;;;;5004944;28;20750;-55
2023/04/19 13:03:56;;;;;;;4.82;3.13;;;;;;;;;;5002135;28;20924;-53
2023/04/19 13:06:24;;;;;;;4.05;3.28;;;;;;;;;;5004675;28;20328;-53
2023/04/19 13:08:51;;;;;;;3.90;3.47;;;;;;;;;;4994400;28;21786;-53
2023/04/19 13:11:21;;;;;;;6.03;3.35;;;;;;;;;;4999555;28;20237;-55
2023/04/19 13:13:48;;;;;;;5.05;3.17;;;;;;;;;;4999604;28;20237;-54
2023/04/19 13:16:14;;;;;;;4.28;3.35;;;;;;;;;;5000731;28;20593;-51
2023/04/19 13:18:41;;;;;;;3.70;2.65;;;;;;;;;;5003192;28;20244;-54
2023/04/19 13:21:07;;;;;;;3.38;3.05;;;;;;;;;;5004045;28;20319;-51
2023/04/19 13:23:37;;;;;;;3.70;3.38;;;;;;;;;;4990742;28;20911;-52
2023/04/19 13:26:03;;;;;;;3.83;2.80;;;;;;;;;;4979349;28;20338;-53
2023/04/19 13:28:30;;;;;;;4.53;2.50;;;;;;;;;;4994564;28;20260;-52
2023/04/19 13:30:56;;;;;;;3.50;3.20;;;;;;;;;;4998204;28;20229;-53
2023/04/19 13:33:23;;;;;;;7.18;3.33;;;;;;;;;;5000547;28;20248;-52
2023/04/19 13:35:49;;;;;;;3.83;2.70;;;;;;;;;;5001223;28;20257;-52
2023/04/19 13:38:15;;;;;;;5.05;3.40;;;;;;;;;;5007096;28;20271;-53
2023/04/19 13:40:44;;;;;;;6.22;3.10;;;;;;;;;;5000325;28;20781;-52
2023/04/19 13:43:10;;;;;;;6.57;2.90;;;;;;;;;;5006527;28;20241;-53
2023/04/19 13:45:36;;;;;;;5.70;3.22;;;;;;;;;;5001320;28;20239;-53
2023/04/19 13:48:03;;;;;;;4.95;3.10;;;;;;;;;;5003037;28;20247;-53
2023/04/19 13:50:29;;;;;;;4.53;3.10;;;;;;;;;;5004972;28;20237;-52
2023/04/19 13:52:56;;;;;;;2.60;2.35;;;;;;;;;;5003473;28;20242;-51
2023/04/19 13:55:22;;;;;;;4.55;2.92;;;;;;;;;;4999033;28;20241;-51
2023/04/19 13:57:50;;;;;;;3.67;3.08;;;;;;;;;;5005666;28;20231;-53
2023/04/19 14:00:17;;;;;;;5.15;3.10;;;;;;;;;;5002670;28;20225;-52
2023/04/19 14:02:45;;;;;;;6.22;3.15;;;;;;;;;;5003314;28;20304;-52
2023/04/19 14:05:11;;;;;;;5.10;3.40;;;;;;;;;;4994487;28;20242;-53
2023/04/19 14:07:38;;;;;;;3.78;2.55;;;;;;;;;;4992125;28;20237;-52
2023/04/19 14:10:06;;;;;;;6.35;3.00;;;;;;;;;;4996009;28;20235;-52
2023/04/19 14:12:32;;;;;;;3.15;2.67;;;;;;;;;;5004132;28;20275;-53
2023/04/19 14:15:00;;;;;;;5.70;3.67;;;;;;;;;;4996311;28;20252;-52
2023/04/19 14:17:27;;;;;;;7.15;3.08;;;;;;;;;;5006569;28;20272;-52
2023/04/19 14:19:53;;;;;;;5.15;3.20;;;;;;;;;;5005004;28;20249;-52
2023/04/19 14:22:20;;;;;;;5.50;2.55;;;;;;;;;;5014747;28;20237;-53
2023/04/19 14:24:46;;;;;;;5.43;2.97;;;;;;;;;;5009700;28;20297;-54
2023/04/19 14:27:12;;;;;;;7.05;3.85;;;;;;;;;;5020499;28;20233;-53
2023/04/19 14:29:39;;;;;;;3.85;3.28;;;;;;;;;;5011486;28;20765;-53
2023/04/19 14:32:07;;;;;;;5.80;2.97;;;;;;;;;;4997002;28;20240;-53
2023/04/19 14:34:33;;;;;;;3.72;2.85;;;;;;;;;;5003758;28;20323;-52
2023/04/19 14:36:59;;;;;;;5.45;3.40;;;;;;;;;;5000628;28;20243;-52
2023/04/19 14:39:26;;;;;;;8.27;3.95;;;;;;;;;;5002774;28;20320;-53
2023/04/19 14:41:52;;;;;;;8.75;3.95;;;;;;;;;;5006759;28;20317;-51
2023/04/19 14:44:19;;;;;;;7.88;3.63;;;;;;;;;;4997308;28;20852;-53
2023/04/19 14:46:46;;;;;;;6.25;3.58;;;;;;;;;;5003136;28;20237;-53